createdAt,value
2022-08-07T00:02:35.181Z,64.80
2022-08-07T00:04:04.873Z,64.84
2022-08-07T00:06:33.369Z,64.91
2022-08-07T00:09:17.143Z,65.15
2022-08-07T00:11:55.252Z,65.15
2022-08-07T00:14:25.375Z,65.56
2022-08-07T00:16:57.227Z,65.55
2022-08-07T00:19:26.063Z,65.61
2022-08-07T00:22:02.283Z,65.61
2022-08-07T00:24:31.605Z,65.58
2022-08-07T00:27:06.277Z,66.15
2022-08-07T00:29:37.087Z,65.89
2022-08-07T00:32:05.813Z,66.13
2022-08-07T00:34:33.725Z,66.22
2022-08-07T00:37:02.772Z,65.87
2022-08-07T00:39:32.233Z,65.97
2022-08-07T00:42:02.235Z,66.32
2022-08-07T00:44:33.195Z,66.30
2022-08-07T00:47:03.994Z,66.30
2022-08-07T00:50:21.289Z,66.33
2022-08-07T00:52:20.285Z,66.63
2022-08-07T00:54:54.009Z,66.68
2022-08-07T00:57:25.765Z,66.45
2022-08-07T00:59:53.712Z,66.77
2022-08-07T01:02:28.467Z,66.59
2022-08-07T01:04:59.321Z,66.58
2022-08-07T01:07:28.393Z,66.86
2022-08-07T01:10:07.210Z,67.04
2022-08-07T01:12:40.082Z,67.29
2022-08-07T01:15:23.096Z,67.38
2022-08-07T01:18:09.713Z,67.14
2022-08-07T01:20:44.836Z,67.51
2022-08-07T01:23:26.877Z,67.47
2022-08-07T01:26:06.400Z,67.41
2022-08-07T01:28:33.465Z,67.23
2022-08-07T01:31:02.869Z,67.44
2022-08-07T01:33:55.886Z,67.53
2022-08-07T01:36:16.968Z,67.54
2022-08-07T01:38:43.889Z,67.74
2022-08-07T01:41:11.979Z,67.92
2022-08-07T01:43:52.561Z,67.83
2022-08-07T01:46:21.351Z,67.95
2022-08-07T01:48:48.730Z,67.94
2022-08-07T01:52:02.326Z,68.13
2022-08-07T01:54:12.300Z,68.12
2022-08-07T01:56:43.317Z,68.28
2022-08-07T01:59:22.502Z,68.41
2022-08-07T02:02:04.501Z,68.60
2022-08-07T02:04:56.322Z,68.81
2022-08-07T02:07:25.927Z,68.69
2022-08-07T02:10:14.300Z,68.65
2022-08-07T02:12:46.371Z,69.06
2022-08-07T02:15:21.005Z,69.07
2022-08-07T02:17:51.781Z,70.01
2022-08-07T02:20:23.715Z,68.84
2022-08-07T02:22:57.364Z,69.03
2022-08-07T02:26:10.225Z,69.16
2022-08-07T02:28:14.380Z,69.66
2022-08-07T02:30:52.762Z,69.84
2022-08-07T02:33:20.615Z,69.83
2022-08-07T02:36:29.775Z,70.00
2022-08-07T02:38:39.105Z,70.26
2022-08-07T02:41:21.852Z,70.22
2022-08-07T02:43:53.154Z,70.54
2022-08-07T02:46:25.697Z,70.50
2022-08-07T02:48:54.976Z,70.69
2022-08-07T02:51:41.937Z,70.78
2022-08-07T02:54:11.188Z,70.90
2022-08-07T02:56:41.358Z,70.73
2022-08-07T02:59:11.757Z,70.83
2022-08-07T03:01:40.125Z,71.08
2022-08-07T03:04:13.028Z,71.01
2022-08-07T03:06:45.829Z,70.93
2022-08-07T03:09:13.760Z,70.98
2022-08-07T03:11:51.936Z,71.64
2022-08-07T03:14:25.969Z,71.41
2022-08-07T03:16:55.150Z,71.78
2022-08-07T03:19:22.014Z,71.80
2022-08-07T03:21:51.166Z,71.53
2022-08-07T03:24:25.873Z,71.59
2022-08-07T03:26:58.106Z,71.56
2022-08-07T03:29:32.065Z,71.25
2022-08-07T03:32:04.920Z,71.55
2022-08-07T03:34:39.146Z,71.56
2022-08-07T03:37:12.189Z,71.27
2022-08-07T03:39:58.921Z,70.88
2022-08-07T03:42:27.139Z,71.20
2022-08-07T03:44:58.148Z,71.09
2022-08-07T03:47:27.971Z,71.28
2022-08-07T03:49:57.708Z,71.41
2022-08-07T03:52:28.081Z,71.26
2022-08-07T03:55:06.544Z,71.55
2022-08-07T03:59:06.700Z,71.70
2022-08-07T04:00:29.302Z,71.98
2022-08-07T04:02:59.393Z,72.12
2022-08-07T04:05:39.206Z,72.03
2022-08-07T04:08:06.796Z,71.99
2022-08-07T04:10:33.365Z,71.96
2022-08-07T04:13:07.527Z,71.88
2022-08-07T04:15:42.786Z,71.77
2022-08-07T04:18:58.537Z,72.26
2022-08-07T04:21:00.418Z,72.08
2022-08-07T04:23:43.540Z,72.35
2022-08-07T04:26:14.442Z,72.48
2022-08-07T04:28:44.185Z,72.67
2022-08-07T04:31:19.977Z,72.46
2022-08-07T04:33:47.291Z,72.70
2022-08-07T04:36:22.863Z,72.56
2022-08-07T04:38:52.782Z,72.92
2022-08-07T04:41:19.518Z,73.09
2022-08-07T04:44:10.216Z,72.95
2022-08-07T04:46:59.274Z,72.69
2022-08-07T04:49:58.043Z,72.75
2022-08-07T04:52:51.011Z,72.81
2022-08-07T04:58:14.033Z,72.88
2022-08-07T04:59:18.449Z,72.75
2022-08-07T05:01:44.662Z,72.48
2022-08-07T05:04:18.425Z,72.66
2022-08-07T05:06:51.198Z,71.92
2022-08-07T05:09:46.250Z,70.19
2022-08-07T05:12:26.513Z,68.86
2022-08-07T05:15:15.906Z,68.16
2022-08-07T05:17:56.547Z,67.12
2022-08-07T05:20:29.322Z,66.22
2022-08-07T05:23:02.053Z,65.66
2022-08-07T05:25:36.737Z,65.57
2022-08-07T05:28:23.034Z,65.12
2022-08-07T05:30:55.532Z,64.65
2022-08-07T05:33:23.653Z,63.81
2022-08-07T05:35:53.274Z,63.46
2022-08-07T05:38:59.695Z,62.82
2022-08-07T05:41:14.054Z,62.34
2022-08-07T05:43:50.248Z,61.91
2022-08-07T05:46:30.994Z,62.36
2022-08-07T05:48:59.888Z,62.64
2022-08-07T05:51:31.690Z,63.08
2022-08-07T05:54:09.459Z,63.25
2022-08-07T05:56:51.255Z,62.62
2022-08-07T05:59:19.361Z,62.25
2022-08-07T06:01:49.400Z,61.69
2022-08-07T06:04:19.098Z,61.23
2022-08-07T06:06:47.625Z,61.14
2022-08-07T06:09:23.430Z,60.68
2022-08-07T06:12:10.372Z,59.80
2022-08-07T06:14:39.457Z,59.61
2022-08-07T06:17:07.207Z,59.26
2022-08-07T06:19:57.496Z,59.08
2022-08-07T06:22:23.856Z,59.05
2022-08-07T06:24:58.507Z,58.37
2022-08-07T06:28:00.077Z,58.42
2022-08-07T06:30:36.021Z,57.61
2022-08-07T06:33:01.700Z,56.89
2022-08-07T06:35:39.195Z,56.07
2022-08-07T06:38:20.785Z,56.30
2022-08-07T06:40:50.905Z,56.64
2022-08-07T06:43:23.534Z,55.90
2022-08-07T06:45:50.798Z,54.83
2022-08-07T06:48:24.693Z,53.90
2022-08-07T06:50:54.095Z,53.63
2022-08-07T06:55:27.436Z,52.55
2022-08-07T06:56:15.374Z,52.64
2022-08-07T07:00:12.994Z,52.71
2022-08-07T07:01:42.153Z,52.14
2022-08-07T07:04:32.682Z,51.75
2022-08-07T07:07:01.818Z,50.51
2022-08-07T07:09:31.058Z,50.51
2022-08-07T07:12:21.623Z,50.78
2022-08-07T07:15:23.837Z,50.53
2022-08-07T07:17:56.520Z,50.12
2022-08-07T07:20:33.565Z,50.09
2022-08-07T07:24:09.458Z,50.10
2022-08-07T07:26:33.869Z,50.01
2022-08-07T07:29:57.526Z,48.60
2022-08-07T07:31:47.990Z,48.29
2022-08-07T07:34:22.339Z,47.68
2022-08-07T07:37:05.577Z,48.69
2022-08-07T07:39:52.263Z,46.84
2022-08-07T07:42:25.925Z,46.43
2022-08-07T07:45:05.420Z,46.38
2022-08-07T07:47:51.827Z,44.90
2022-08-07T07:50:35.717Z,44.25
2022-08-07T07:53:20.347Z,43.62
2022-08-07T07:55:57.757Z,43.66
2022-08-07T07:58:30.827Z,43.03
2022-08-07T08:02:03.562Z,43.64
2022-08-07T08:04:09.299Z,42.40
2022-08-07T08:06:50.935Z,42.21
2022-08-07T08:09:20.785Z,41.27
2022-08-07T08:12:03.006Z,40.81
2022-08-07T08:14:35.998Z,39.75
2022-08-07T08:17:55.894Z,39.31
2022-08-07T08:20:17.858Z,39.65
2022-08-07T08:23:02.090Z,38.14
2022-08-07T08:25:49.952Z,38.46
2022-08-07T08:28:38.172Z,38.86
2022-08-07T08:31:15.839Z,38.90
2022-08-07T08:33:49.052Z,37.69
2022-08-07T08:36:25.440Z,38.03
2022-08-07T08:38:56.077Z,37.13
2022-08-07T08:41:56.752Z,37.27
2022-08-07T08:44:36.250Z,36.49
2022-08-07T08:47:25.161Z,36.54
2022-08-07T08:50:28.251Z,37.25
2022-08-07T08:53:22.534Z,35.86
2022-08-07T08:55:58.604Z,36.67
2022-08-07T08:58:50.583Z,37.49
2022-08-07T09:01:40.148Z,35.70
2022-08-07T09:04:18.771Z,35.49
2022-08-07T09:06:55.430Z,36.22
2022-08-07T09:09:36.746Z,35.14
2022-08-07T09:12:30.533Z,34.32
2022-08-07T09:16:23.872Z,34.80
2022-08-07T09:18:31.693Z,32.35
2022-08-07T09:21:05.704Z,31.89
2022-08-07T09:24:31.729Z,33.76
2022-08-07T09:27:23.267Z,33.44
2022-08-07T09:30:08.391Z,32.79
2022-08-07T09:33:16.475Z,32.35
2022-08-07T09:36:18.653Z,32.21
2022-08-07T09:38:54.595Z,31.98
2022-08-07T09:41:58.318Z,31.34
2022-08-07T09:47:25.041Z,31.03
2022-08-07T09:47:55.888Z,32.34
2022-08-07T09:51:26.122Z,29.94
2022-08-07T09:54:02.534Z,31.71
2022-08-07T09:56:51.744Z,29.33
2022-08-07T10:00:14.656Z,30.17
2022-08-07T10:04:05.462Z,29.92
2022-08-07T10:06:42.361Z,29.15
2022-08-07T10:09:34.281Z,28.80
2022-08-07T10:12:34.086Z,28.16
2022-08-07T10:15:26.172Z,27.68
2022-08-07T10:18:32.885Z,27.88
2022-08-07T10:22:12.592Z,28.93
2022-08-07T10:24:49.067Z,28.82
2022-08-07T10:27:30.269Z,27.78
2022-08-07T10:30:19.739Z,27.20
2022-08-07T10:33:23.517Z,27.24
2022-08-07T10:36:58.393Z,27.71
2022-08-07T10:39:57.512Z,28.09
2022-08-07T10:42:38.846Z,26.93
2022-08-07T10:45:17.731Z,27.48
2022-08-07T10:48:23.835Z,27.02
2022-08-07T10:50:57.320Z,26.87
2022-08-07T10:53:44.308Z,25.35
2022-08-07T10:56:32.876Z,26.20
2022-08-07T10:59:23.906Z,24.97
2022-08-07T11:02:32.729Z,26.12
2022-08-07T11:05:50.433Z,25.61
2022-08-07T11:08:48.601Z,25.33
2022-08-07T11:11:27.630Z,26.16
2022-08-07T11:14:46.401Z,26.28
2022-08-07T11:17:01.844Z,26.79
2022-08-07T11:19:45.692Z,27.53
2022-08-07T11:22:33.371Z,25.24
2022-08-07T11:25:24.118Z,23.63
2022-08-07T11:28:34.374Z,25.46
2022-08-07T11:31:19.044Z,23.65
2022-08-07T11:34:00.137Z,24.76
2022-08-07T11:36:43.649Z,23.84
2022-08-07T11:40:01.320Z,25.55
2022-08-07T11:42:32.897Z,25.86
2022-08-07T11:45:20.489Z,26.50
2022-08-07T11:48:29.904Z,26.25
2022-08-07T11:51:41.684Z,26.15
2022-08-07T11:54:31.497Z,25.50
2022-08-07T11:57:18.621Z,25.57
2022-08-07T12:00:18.690Z,25.53
2022-08-07T12:03:44.853Z,25.89
2022-08-07T12:06:39.919Z,25.68
2022-08-07T12:09:27.761Z,27.39
2022-08-07T12:12:12.498Z,26.36
2022-08-07T12:14:52.675Z,27.00
2022-08-07T12:17:28.339Z,26.24
2022-08-07T12:20:20.819Z,26.32
2022-08-07T12:23:21.392Z,27.29
2022-08-07T12:26:29.323Z,28.13
2022-08-07T12:29:03.603Z,27.64
2022-08-07T12:32:01.493Z,26.94
2022-08-07T12:34:32.834Z,26.84
2022-08-07T12:37:01.594Z,28.08
2022-08-07T12:39:42.948Z,28.51
2022-08-07T12:42:27.628Z,27.28
2022-08-07T12:44:58.021Z,27.14
2022-08-07T12:47:39.730Z,26.63
2022-08-07T12:50:38.864Z,26.55
2022-08-07T12:54:36.836Z,27.09
2022-08-07T12:56:40.001Z,26.38
2022-08-07T12:59:08.693Z,27.16
2022-08-07T13:02:17.161Z,27.26
2022-08-07T13:05:14.861Z,26.51
2022-08-07T13:08:18.545Z,27.59
2022-08-07T13:11:03.104Z,27.03
2022-08-07T13:13:57.354Z,25.59
2022-08-07T13:16:30.543Z,26.12
2022-08-07T13:19:04.353Z,25.08
2022-08-07T13:21:57.448Z,27.00
2022-08-07T13:25:00.077Z,26.68
2022-08-07T13:28:11.505Z,26.06
2022-08-07T13:30:43.466Z,24.74
2022-08-07T13:34:14.424Z,25.61
2022-08-07T13:36:18.702Z,25.03
2022-08-07T13:38:58.703Z,26.10
2022-08-07T13:41:48.114Z,25.19
2022-08-07T13:44:26.110Z,25.09
2022-08-07T13:46:59.514Z,24.32
2022-08-07T13:50:36.633Z,24.61
2022-08-07T13:52:32.638Z,24.38
2022-08-07T13:55:25.462Z,23.53
2022-08-07T13:58:27.683Z,22.94
2022-08-07T14:01:08.805Z,22.72
2022-08-07T14:04:05.103Z,23.20
2022-08-07T14:06:35.427Z,22.44
2022-08-07T14:09:04.763Z,22.16
2022-08-07T14:12:00.084Z,22.84
2022-08-07T14:14:31.243Z,21.98
2022-08-07T14:17:32.296Z,22.50
2022-08-07T14:20:43.188Z,22.19
2022-08-07T14:23:00.600Z,23.92
2022-08-07T14:25:39.323Z,23.28
2022-08-07T14:28:13.576Z,23.71
2022-08-07T14:30:47.042Z,23.93
2022-08-07T14:33:22.432Z,24.48
2022-08-07T14:35:55.706Z,24.99
2022-08-07T14:38:31.341Z,23.57
2022-08-07T14:41:03.854Z,24.54
2022-08-07T14:43:55.355Z,25.17
2022-08-07T14:46:31.484Z,25.41
2022-08-07T14:49:17.199Z,25.26
2022-08-07T14:52:04.819Z,24.88
2022-08-07T14:54:41.918Z,24.15
2022-08-07T14:57:19.560Z,26.08
2022-08-07T15:00:06.061Z,25.72
2022-08-07T15:02:35.058Z,24.47
2022-08-07T15:05:04.620Z,25.76
2022-08-07T15:07:47.647Z,24.61
2022-08-07T15:10:26.434Z,23.78
2022-08-07T15:13:12.274Z,23.94
2022-08-07T15:18:35.958Z,24.76
2022-08-07T15:21:58.686Z,25.49
2022-08-07T15:25:15.569Z,24.95
2022-08-07T15:27:08.106Z,25.64
2022-08-07T15:30:04.386Z,26.44
2022-08-07T15:38:29.918Z,27.23
2022-08-07T15:43:59.472Z,29.76
2022-08-07T15:46:39.397Z,30.10
2022-08-07T15:49:25.365Z,31.12
2022-08-07T15:52:13.872Z,30.62
2022-08-07T15:54:44.254Z,30.83
2022-08-07T15:57:28.124Z,30.64
2022-08-07T16:00:07.848Z,31.53
2022-08-07T16:02:47.590Z,31.57
2022-08-07T16:05:20.278Z,31.51
2022-08-07T16:08:31.867Z,31.20
2022-08-07T16:10:47.148Z,31.44
2022-08-07T16:13:58.456Z,30.96
2022-08-07T16:16:49.338Z,31.65
2022-08-07T16:20:00.143Z,31.95
2022-08-07T16:22:55.826Z,33.12
2022-08-07T16:25:55.797Z,33.44
2022-08-07T16:29:18.458Z,33.66
2022-08-07T16:32:03.823Z,34.57
2022-08-07T16:34:55.392Z,34.55
2022-08-07T16:38:03.357Z,34.28
2022-08-07T16:41:02.400Z,34.34
2022-08-07T16:44:47.212Z,34.67
2022-08-07T16:47:45.236Z,34.68
2022-08-07T16:50:20.778Z,34.28
2022-08-07T16:54:01.623Z,34.23
2022-08-07T16:56:18.673Z,34.30
2022-08-07T16:59:17.414Z,34.55
2022-08-07T17:02:51.235Z,35.03
2022-08-07T17:06:26.715Z,35.71
2022-08-07T17:09:09.704Z,35.24
2022-08-07T17:12:01.273Z,35.99
2022-08-07T17:14:32.167Z,36.69
2022-08-07T17:17:04.647Z,36.55
2022-08-07T17:20:02.380Z,37.21
2022-08-07T17:22:37.659Z,36.88
2022-08-07T17:25:12.877Z,37.31
2022-08-07T17:27:51.116Z,37.61
2022-08-07T17:30:20.108Z,37.66
2022-08-07T17:34:08.326Z,37.54
2022-08-07T17:36:20.494Z,37.68
2022-08-07T17:39:15.428Z,37.73
2022-08-07T17:42:04.632Z,39.42
2022-08-07T17:44:49.916Z,38.54
2022-08-07T17:47:44.836Z,39.24
2022-08-07T17:50:32.283Z,39.14
2022-08-07T17:54:01.419Z,39.97
2022-08-07T17:56:31.364Z,39.99
2022-08-07T17:59:10.238Z,39.21
2022-08-07T18:01:56.635Z,39.85
2022-08-07T18:04:36.963Z,40.03
2022-08-07T18:07:20.521Z,39.75
2022-08-07T18:10:07.087Z,40.38
2022-08-07T18:13:01.369Z,41.75
2022-08-07T18:15:41.102Z,41.52
2022-08-07T18:18:46.500Z,41.27
2022-08-07T18:21:38.205Z,41.66
2022-08-07T18:23:58.521Z,42.05
2022-08-07T18:26:41.294Z,42.06
2022-08-07T18:30:04.612Z,42.67
2022-08-07T18:32:22.204Z,42.77
2022-08-07T18:35:09.430Z,43.85
2022-08-07T18:38:55.628Z,44.03
2022-08-07T18:41:16.842Z,43.78
2022-08-07T18:44:09.102Z,43.82
2022-08-07T18:46:51.188Z,44.12
2022-08-07T18:50:30.073Z,44.65
2022-08-07T18:52:53.581Z,44.93
2022-08-07T18:55:55.752Z,45.61
2022-08-07T18:58:42.439Z,45.49
2022-08-07T19:02:18.107Z,46.75
2022-08-07T19:04:57.627Z,47.50
2022-08-07T19:07:51.508Z,47.27
2022-08-07T19:10:31.460Z,47.32
2022-08-07T19:13:11.443Z,47.83
2022-08-07T19:16:05.330Z,48.28
2022-08-07T19:19:03.201Z,48.67
2022-08-07T19:22:05.182Z,48.88
2022-08-07T19:24:46.041Z,49.71
2022-08-07T19:28:30.460Z,49.94
2022-08-07T19:31:06.041Z,50.75
2022-08-07T19:33:12.704Z,50.97
2022-08-07T19:35:41.409Z,51.35
2022-08-07T19:38:15.750Z,51.93
2022-08-07T19:40:49.934Z,51.67
2022-08-07T19:43:49.218Z,52.29
2022-08-07T19:46:26.356Z,52.14
2022-08-07T19:49:02.908Z,52.62
2022-08-07T19:51:51.129Z,53.79
2022-08-07T19:54:33.746Z,54.17
2022-08-07T19:58:04.557Z,53.98
2022-08-07T20:00:09.008Z,54.64
2022-08-07T20:02:52.048Z,56.14
2022-08-07T20:05:28.094Z,57.27
2022-08-07T20:08:00.738Z,57.71
2022-08-07T20:10:36.866Z,57.74
2022-08-07T20:13:27.139Z,58.80
2022-08-07T20:16:01.035Z,59.79
2022-08-07T20:18:33.522Z,60.13
2022-08-07T20:21:02.201Z,60.67
2022-08-07T20:23:41.613Z,60.04
2022-08-07T20:26:10.972Z,60.35
2022-08-07T20:28:41.299Z,61.47
2022-08-07T20:31:21.011Z,61.53
2022-08-07T20:33:57.302Z,61.93
2022-08-07T20:36:27.140Z,61.27
2022-08-07T20:39:00.736Z,60.69
2022-08-07T20:41:48.809Z,61.19
2022-08-07T20:44:16.165Z,61.12
2022-08-07T20:46:46.734Z,61.56
2022-08-07T20:50:01.249Z,62.29
2022-08-07T20:52:29.987Z,62.30
2022-08-07T20:55:09.863Z,62.13
2022-08-07T20:57:47.498Z,63.34
2022-08-07T21:00:42.654Z,63.88
2022-08-07T21:03:15.612Z,63.87
2022-08-07T21:05:56.024Z,64.23
2022-08-07T21:08:37.735Z,64.33
2022-08-07T21:11:10.837Z,64.50
2022-08-07T21:14:16.925Z,64.99
2022-08-07T21:16:56.171Z,64.94
2022-08-07T21:19:32.287Z,64.77
2022-08-07T21:22:19.019Z,64.52
2022-08-07T21:25:13.562Z,65.49
2022-08-07T21:28:07.823Z,65.68
2022-08-07T21:30:49.690Z,66.09
2022-08-07T21:33:38.336Z,65.59
2022-08-07T21:36:32.146Z,65.68
2022-08-07T21:39:48.230Z,65.28
2022-08-07T21:42:42.915Z,65.64
2022-08-07T21:46:07.868Z,65.75
2022-08-07T21:48:56.499Z,65.85
2022-08-07T21:51:54.552Z,66.00
2022-08-07T21:54:33.875Z,66.41
2022-08-07T21:57:31.098Z,67.22
2022-08-07T22:00:22.456Z,67.06
2022-08-07T22:03:08.764Z,67.33
2022-08-07T22:06:32.341Z,67.85
2022-08-07T22:09:07.014Z,67.91
2022-08-07T22:11:53.036Z,68.17
2022-08-07T22:14:36.247Z,68.62
2022-08-07T22:17:04.990Z,68.79
2022-08-07T22:19:43.841Z,68.67
2022-08-07T22:22:27.903Z,68.62
2022-08-07T22:25:02.784Z,68.67
2022-08-07T22:28:20.215Z,68.74
2022-08-07T22:30:56.930Z,68.85
2022-08-07T22:33:56.693Z,68.95
2022-08-07T22:36:47.468Z,69.23
2022-08-07T22:39:23.294Z,69.28
2022-08-07T22:42:10.604Z,69.42
2022-08-07T22:44:58.699Z,69.79
2022-08-07T22:47:52.340Z,69.83
2022-08-07T22:50:39.734Z,69.58
2022-08-07T22:54:06.775Z,69.94
2022-08-07T22:56:34.498Z,69.76
2022-08-07T22:59:25.788Z,70.35
2022-08-07T23:02:30.959Z,70.10
2022-08-07T23:06:06.896Z,70.36
2022-08-07T23:08:46.089Z,70.16
2022-08-07T23:11:44.177Z,70.52
2022-08-07T23:14:47.386Z,70.56
2022-08-07T23:17:45.125Z,70.62
2022-08-07T23:20:40.735Z,70.74
2022-08-07T23:23:14.768Z,70.72
2022-08-07T23:26:16.298Z,70.86
2022-08-07T23:29:17.150Z,70.68
2022-08-07T23:34:21.734Z,70.68
2022-08-07T23:35:12.199Z,70.15
2022-08-07T23:38:01.848Z,70.17
2022-08-07T23:40:41.851Z,70.19
2022-08-07T23:43:38.226Z,71.39
2022-08-07T23:46:27.486Z,70.07
2022-08-07T23:49:03.098Z,70.40
2022-08-07T23:52:59.893Z,70.60
2022-08-07T23:54:53.762Z,70.80
2022-08-07T23:57:55.957Z,71.09
